Terminal Aerodrome Forecast
Issued by NWS

Current Version | Previous Version | Text Only | Print | Product List | Glossary On
Versions: 1 2 3 4 5 6 7 8 9 10 11
057
FTUS45 KABQ 081732
TAFAEG
TAF
KAEG 081732Z 0818/0918 34007KT P6SM FEW250
     FM090200 31006KT P6SM SKC=

USA.gov is the U.S. government's official web portal to all federal, state and local government web resources and services.